sensor_id;sensor_type;location;lat;lon;timestamp;temperature;humidity
28715;DHT22;15886;49.170;14.572;2023-03-14T00:01:19;9.50;99.90
28715;DHT22;15886;49.170;14.572;2023-03-14T00:04:54;9.50;99.90
28715;DHT22;15886;49.170;14.572;2023-03-14T00:08:05;9.40;99.90
28715;DHT22;15886;49.170;14.572;2023-03-14T00:11:07;9.40;99.90
28715;DHT22;15886;49.170;14.572;2023-03-14T00:13:52;9.40;99.90
28715;DHT22;15886;49.170;14.572;2023-03-14T00:16:21;9.40;99.90
28715;DHT22;15886;49.170;14.572;2023-03-14T00:18:49;9.60;99.90
28715;DHT22;15886;49.170;14.572;2023-03-14T00:21:18;9.70;99.90
28715;DHT22;15886;49.170;14.572;2023-03-14T00:23:58;9.80;99.90
28715;DHT22;15886;49.170;14.572;2023-03-14T00:30:43;9.80;99.90
28715;DHT22;15886;49.170;14.572;2023-03-14T00:33:15;9.80;99.90
28715;DHT22;15886;49.170;14.572;2023-03-14T00:36:16;9.80;99.90
28715;DHT22;15886;49.170;14.572;2023-03-14T00:38:50;9.80;99.90
28715;DHT22;15886;49.170;14.572;2023-03-14T00:46:14;9.80;99.90
28715;DHT22;15886;49.170;14.572;2023-03-14T00:49:38;9.70;99.90
28715;DHT22;15886;49.170;14.572;2023-03-14T00:52:14;9.80;99.90
28715;DHT22;15886;49.170;14.572;2023-03-14T00:54:48;9.60;99.90
28715;DHT22;15886;49.170;14.572;2023-03-14T00:57:16;9.60;99.90
28715;DHT22;15886;49.170;14.572;2023-03-14T00:59:46;9.50;99.90
28715;DHT22;15886;49.170;14.572;2023-03-14T01:02:16;9.40;99.90
28715;DHT22;15886;49.170;14.572;2023-03-14T01:04:48;9.30;99.90
28715;DHT22;15886;49.170;14.572;2023-03-14T01:07:16;9.20;99.90
28715;DHT22;15886;49.170;14.572;2023-03-14T01:09:46;9.20;99.90
28715;DHT22;15886;49.170;14.572;2023-03-14T01:12:14;9.10;99.90
28715;DHT22;15886;49.170;14.572;2023-03-14T01:14:42;9.00;99.90
28715;DHT22;15886;49.170;14.572;2023-03-14T01:17:10;8.90;99.90
28715;DHT22;15886;49.170;14.572;2023-03-14T01:19:38;8.80;99.90
28715;DHT22;15886;49.170;14.572;2023-03-14T01:22:07;8.70;99.90
28715;DHT22;15886;49.170;14.572;2023-03-14T01:24:37;8.60;99.90
28715;DHT22;15886;49.170;14.572;2023-03-14T01:27:05;8.50;99.90
28715;DHT22;15886;49.170;14.572;2023-03-14T01:29:34;8.40;99.90
28715;DHT22;15886;49.170;14.572;2023-03-14T01:32:04;8.30;99.90
28715;DHT22;15886;49.170;14.572;2023-03-14T01:34:32;8.10;99.90
28715;DHT22;15886;49.170;14.572;2023-03-14T01:40:21;7.80;99.90
28715;DHT22;15886;49.170;14.572;2023-03-14T01:43:00;7.60;99.90
28715;DHT22;15886;49.170;14.572;2023-03-14T01:48:23;7.60;99.90
28715;DHT22;15886;49.170;14.572;2023-03-14T01:50:55;7.50;99.90
28715;DHT22;15886;49.170;14.572;2023-03-14T01:53:23;7.40;99.90
28715;DHT22;15886;49.170;14.572;2023-03-14T01:55:53;7.40;99.90
28715;DHT22;15886;49.170;14.572;2023-03-14T01:58:28;7.40;99.90
28715;DHT22;15886;49.170;14.572;2023-03-14T02:01:03;7.50;99.90
28715;DHT22;15886;49.170;14.572;2023-03-14T02:03:44;7.60;99.90
28715;DHT22;15886;49.170;14.572;2023-03-14T02:06:15;7.70;99.90
28715;DHT22;15886;49.170;14.572;2023-03-14T02:08:47;7.80;99.90
28715;DHT22;15886;49.170;14.572;2023-03-14T02:11:56;7.70;99.90
28715;DHT22;15886;49.170;14.572;2023-03-14T02:14:49;7.60;99.90
28715;DHT22;15886;49.170;14.572;2023-03-14T02:17:30;7.70;99.90
28715;DHT22;15886;49.170;14.572;2023-03-14T02:24:17;7.80;99.90
28715;DHT22;15886;49.170;14.572;2023-03-14T02:27:20;7.70;99.90
28715;DHT22;15886;49.170;14.572;2023-03-14T02:29:53;7.70;99.90
28715;DHT22;15886;49.170;14.572;2023-03-14T02:32:23;7.80;99.90
28715;DHT22;15886;49.170;14.572;2023-03-14T02:34:55;7.80;99.90
28715;DHT22;15886;49.170;14.572;2023-03-14T02:37:33;7.80;99.90
28715;DHT22;15886;49.170;14.572;2023-03-14T02:40:03;7.90;99.90
28715;DHT22;15886;49.170;14.572;2023-03-14T02:42:34;7.90;99.90
28715;DHT22;15886;49.170;14.572;2023-03-14T02:48:02;8.10;99.90
28715;DHT22;15886;49.170;14.572;2023-03-14T02:50:35;8.00;99.90
28715;DHT22;15886;49.170;14.572;2023-03-14T02:53:03;8.00;99.90
28715;DHT22;15886;49.170;14.572;2023-03-14T02:55:32;7.90;99.90
28715;DHT22;15886;49.170;14.572;2023-03-14T02:58:06;7.90;99.90
28715;DHT22;15886;49.170;14.572;2023-03-14T03:00:42;7.80;99.90
28715;DHT22;15886;49.170;14.572;2023-03-14T03:03:14;7.70;99.90
28715;DHT22;15886;49.170;14.572;2023-03-14T03:05:42;7.70;99.90
28715;DHT22;15886;49.170;14.572;2023-03-14T03:08:11;7.60;99.90
28715;DHT22;15886;49.170;14.572;2023-03-14T03:10:47;7.70;99.90
28715;DHT22;15886;49.170;14.572;2023-03-14T03:13:17;7.70;99.90
28715;DHT22;15886;49.170;14.572;2023-03-14T03:15:51;7.70;99.90
28715;DHT22;15886;49.170;14.572;2023-03-14T03:18:19;7.70;99.90
28715;DHT22;15886;49.170;14.572;2023-03-14T03:20:48;7.80;99.90
28715;DHT22;15886;49.170;14.572;2023-03-14T03:23:16;7.70;99.90
28715;DHT22;15886;49.170;14.572;2023-03-14T03:25:57;7.70;99.90
28715;DHT22;15886;49.170;14.572;2023-03-14T03:28:33;7.70;99.90
28715;DHT22;15886;49.170;14.572;2023-03-14T03:31:10;7.70;99.90
28715;DHT22;15886;49.170;14.572;2023-03-14T03:33:46;7.70;99.90
28715;DHT22;15886;49.170;14.572;2023-03-14T03:36:22;7.80;99.90
28715;DHT22;15886;49.170;14.572;2023-03-14T03:39:16;7.90;99.90
28715;DHT22;15886;49.170;14.572;2023-03-14T03:41:48;7.90;99.90
28715;DHT22;15886;49.170;14.572;2023-03-14T03:44:20;7.90;99.90
28715;DHT22;15886;49.170;14.572;2023-03-14T03:46:52;7.80;99.90
28715;DHT22;15886;49.170;14.572;2023-03-14T03:49:22;7.90;99.90
28715;DHT22;15886;49.170;14.572;2023-03-14T03:51:54;7.90;99.90
28715;DHT22;15886;49.170;14.572;2023-03-14T03:54:57;7.90;99.90
28715;DHT22;15886;49.170;14.572;2023-03-14T03:57:33;7.90;99.90
28715;DHT22;15886;49.170;14.572;2023-03-14T04:00:15;7.90;99.90
28715;DHT22;15886;49.170;14.572;2023-03-14T04:03:23;7.90;99.90
28715;DHT22;15886;49.170;14.572;2023-03-14T04:06:19;7.90;99.90
28715;DHT22;15886;49.170;14.572;2023-03-14T04:09:37;7.80;99.90
28715;DHT22;15886;49.170;14.572;2023-03-14T04:13:01;7.80;99.90
28715;DHT22;15886;49.170;14.572;2023-03-14T04:16:37;7.80;99.90
28715;DHT22;15886;49.170;14.572;2023-03-14T04:20:21;7.90;99.90
28715;DHT22;15886;49.170;14.572;2023-03-14T04:22:54;8.00;99.90
28715;DHT22;15886;49.170;14.572;2023-03-14T04:26:16;8.00;99.90
28715;DHT22;15886;49.170;14.572;2023-03-14T04:29:06;8.00;99.90
28715;DHT22;15886;49.170;14.572;2023-03-14T04:31:40;8.00;99.90
28715;DHT22;15886;49.170;14.572;2023-03-14T04:35:02;8.10;99.90
28715;DHT22;15886;49.170;14.572;2023-03-14T04:38:10;8.10;99.90
28715;DHT22;15886;49.170;14.572;2023-03-14T04:41:29;8.10;99.90
28715;DHT22;15886;49.170;14.572;2023-03-14T04:47:17;8.00;99.90
28715;DHT22;15886;49.170;14.572;2023-03-14T04:56:47;7.80;99.90
28715;DHT22;15886;49.170;14.572;2023-03-14T05:00:13;7.80;99.90
28715;DHT22;15886;49.170;14.572;2023-03-14T05:06:16;8.30;99.90
28715;DHT22;15886;49.170;14.572;2023-03-14T05:09:23;8.60;99.90
28715;DHT22;15886;49.170;14.572;2023-03-14T05:12:50;9.00;99.90
28715;DHT22;15886;49.170;14.572;2023-03-14T05:16:22;9.30;99.90
28715;DHT22;15886;49.170;14.572;2023-03-14T05:25:00;9.90;99.90
28715;DHT22;15886;49.170;14.572;2023-03-14T05:28:36;10.00;99.90
28715;DHT22;15886;49.170;14.572;2023-03-14T06:08:29;10.60;99.90
28715;DHT22;15886;49.170;14.572;2023-03-14T06:11:02;10.60;99.90
28715;DHT22;15886;49.170;14.572;2023-03-14T06:13:37;10.60;99.90
28715;DHT22;15886;49.170;14.572;2023-03-14T06:16:09;10.50;99.90
28715;DHT22;15886;49.170;14.572;2023-03-14T06:18:49;10.50;99.90
28715;DHT22;15886;49.170;14.572;2023-03-14T06:21:26;10.60;99.90
28715;DHT22;15886;49.170;14.572;2023-03-14T06:24:14;10.60;99.90
28715;DHT22;15886;49.170;14.572;2023-03-14T06:26:55;10.60;99.90
28715;DHT22;15886;49.170;14.572;2023-03-14T06:29:26;10.60;99.90
28715;DHT22;15886;49.170;14.572;2023-03-14T06:31:54;10.70;99.90
28715;DHT22;15886;49.170;14.572;2023-03-14T06:34:26;10.70;99.90
28715;DHT22;15886;49.170;14.572;2023-03-14T06:36:54;10.70;99.90
28715;DHT22;15886;49.170;14.572;2023-03-14T06:39:24;10.70;99.90
28715;DHT22;15886;49.170;14.572;2023-03-14T06:42:04;10.80;99.90
28715;DHT22;15886;49.170;14.572;2023-03-14T06:44:36;10.80;99.90
28715;DHT22;15886;49.170;14.572;2023-03-14T06:47:07;10.70;99.90
28715;DHT22;15886;49.170;14.572;2023-03-14T06:49:42;10.70;99.90
28715;DHT22;15886;49.170;14.572;2023-03-14T06:52:11;10.80;99.90
28715;DHT22;15886;49.170;14.572;2023-03-14T06:54:39;10.80;99.90
28715;DHT22;15886;49.170;14.572;2023-03-14T06:57:07;10.80;99.90
28715;DHT22;15886;49.170;14.572;2023-03-14T06:59:38;10.80;99.90
28715;DHT22;15886;49.170;14.572;2023-03-14T07:02:11;10.80;99.90
28715;DHT22;15886;49.170;14.572;2023-03-14T07:04:43;10.80;99.90
28715;DHT22;15886;49.170;14.572;2023-03-14T07:07:11;10.80;99.90
28715;DHT22;15886;49.170;14.572;2023-03-14T07:09:44;10.90;99.90
28715;DHT22;15886;49.170;14.572;2023-03-14T07:12:21;10.90;99.90
28715;DHT22;15886;49.170;14.572;2023-03-14T07:14:50;10.90;99.90
28715;DHT22;15886;49.170;14.572;2023-03-14T07:17:20;11.00;99.90
28715;DHT22;15886;49.170;14.572;2023-03-14T07:19:52;11.00;99.90
28715;DHT22;15886;49.170;14.572;2023-03-14T07:22:20;11.00;99.90
28715;DHT22;15886;49.170;14.572;2023-03-14T07:24:49;11.10;99.90
28715;DHT22;15886;49.170;14.572;2023-03-14T07:27:20;11.00;99.90
28715;DHT22;15886;49.170;14.572;2023-03-14T07:29:49;11.10;99.90
28715;DHT22;15886;49.170;14.572;2023-03-14T07:32:22;11.10;99.90
28715;DHT22;15886;49.170;14.572;2023-03-14T07:34:53;11.20;99.90
28715;DHT22;15886;49.170;14.572;2023-03-14T07:37:28;11.20;99.90
28715;DHT22;15886;49.170;14.572;2023-03-14T07:40:13;11.20;99.90
28715;DHT22;15886;49.170;14.572;2023-03-14T07:42:49;11.20;99.90
28715;DHT22;15886;49.170;14.572;2023-03-14T07:45:52;11.30;99.90
28715;DHT22;15886;49.170;14.572;2023-03-14T07:49:02;11.30;99.90
28715;DHT22;15886;49.170;14.572;2023-03-14T07:51:38;11.20;99.90
28715;DHT22;15886;49.170;14.572;2023-03-14T07:54:36;11.20;99.90
28715;DHT22;15886;49.170;14.572;2023-03-14T07:57:44;11.20;99.90
28715;DHT22;15886;49.170;14.572;2023-03-14T08:00:52;11.20;99.90
28715;DHT22;15886;49.170;14.572;2023-03-14T08:03:35;11.20;99.90
28715;DHT22;15886;49.170;14.572;2023-03-14T08:06:43;11.20;99.90
28715;DHT22;15886;49.170;14.572;2023-03-14T08:09:44;11.30;99.90
28715;DHT22;15886;49.170;14.572;2023-03-14T08:12:37;11.20;99.90
28715;DHT22;15886;49.170;14.572;2023-03-14T08:15:35;11.30;99.90
28715;DHT22;15886;49.170;14.572;2023-03-14T08:18:09;11.30;99.90
28715;DHT22;15886;49.170;14.572;2023-03-14T08:21:04;11.30;99.90
28715;DHT22;15886;49.170;14.572;2023-03-14T08:23:36;11.30;99.90
28715;DHT22;15886;49.170;14.572;2023-03-14T08:26:18;11.40;99.90
28715;DHT22;15886;49.170;14.572;2023-03-14T08:28:53;11.40;99.90
28715;DHT22;15886;49.170;14.572;2023-03-14T08:31:46;11.50;99.90
28715;DHT22;15886;49.170;14.572;2023-03-14T08:34:23;11.50;99.90
28715;DHT22;15886;49.170;14.572;2023-03-14T08:36:51;11.50;99.90
28715;DHT22;15886;49.170;14.572;2023-03-14T08:39:19;11.50;99.90
28715;DHT22;15886;49.170;14.572;2023-03-14T08:41:49;11.50;99.90
28715;DHT22;15886;49.170;14.572;2023-03-14T08:44:17;11.60;99.90
28715;DHT22;15886;49.170;14.572;2023-03-14T08:46:47;11.50;99.90
28715;DHT22;15886;49.170;14.572;2023-03-14T08:49:15;11.50;99.90
28715;DHT22;15886;49.170;14.572;2023-03-14T08:51:46;11.50;99.90
28715;DHT22;15886;49.170;14.572;2023-03-14T08:54:14;11.50;99.90
28715;DHT22;15886;49.170;14.572;2023-03-14T08:56:42;11.60;99.90
28715;DHT22;15886;49.170;14.572;2023-03-14T08:59:10;11.60;99.90
28715;DHT22;15886;49.170;14.572;2023-03-14T09:01:39;11.60;99.90
28715;DHT22;15886;49.170;14.572;2023-03-14T09:04:07;11.60;99.90
28715;DHT22;15886;49.170;14.572;2023-03-14T09:06:35;11.60;99.90
28715;DHT22;15886;49.170;14.572;2023-03-14T09:09:03;11.60;99.90
28715;DHT22;15886;49.170;14.572;2023-03-14T09:11:31;11.50;99.90
28715;DHT22;15886;49.170;14.572;2023-03-14T09:13:59;11.50;99.90
28715;DHT22;15886;49.170;14.572;2023-03-14T09:16:28;11.50;99.90
28715;DHT22;15886;49.170;14.572;2023-03-14T09:18:56;11.60;99.90
28715;DHT22;15886;49.170;14.572;2023-03-14T09:21:28;11.60;99.90
28715;DHT22;15886;49.170;14.572;2023-03-14T09:23:56;11.70;99.90
28715;DHT22;15886;49.170;14.572;2023-03-14T09:26:24;11.70;99.90
28715;DHT22;15886;49.170;14.572;2023-03-14T09:28:52;11.70;99.90
28715;DHT22;15886;49.170;14.572;2023-03-14T09:31:21;11.70;99.90
28715;DHT22;15886;49.170;14.572;2023-03-14T09:33:49;11.80;99.90
28715;DHT22;15886;49.170;14.572;2023-03-14T09:36:17;11.70;99.90
28715;DHT22;15886;49.170;14.572;2023-03-14T09:38:45;11.70;99.90
28715;DHT22;15886;49.170;14.572;2023-03-14T09:41:37;11.80;99.90
28715;DHT22;15886;49.170;14.572;2023-03-14T09:44:25;11.80;99.90
28715;DHT22;15886;49.170;14.572;2023-03-14T09:46:57;11.80;99.90
28715;DHT22;15886;49.170;14.572;2023-03-14T09:49:35;11.90;99.90
28715;DHT22;15886;49.170;14.572;2023-03-14T09:55:03;11.80;99.90
28715;DHT22;15886;49.170;14.572;2023-03-14T09:57:36;11.90;99.90
28715;DHT22;15886;49.170;14.572;2023-03-14T10:02:57;11.80;99.90
28715;DHT22;15886;49.170;14.572;2023-03-14T10:05:29;11.80;99.90
28715;DHT22;15886;49.170;14.572;2023-03-14T10:07:57;11.80;99.90
28715;DHT22;15886;49.170;14.572;2023-03-14T10:10:26;11.70;99.90
28715;DHT22;15886;49.170;14.572;2023-03-14T10:13:00;11.70;99.90
28715;DHT22;15886;49.170;14.572;2023-03-14T10:15:33;11.70;99.90
28715;DHT22;15886;49.170;14.572;2023-03-14T10:18:03;11.70;99.90
28715;DHT22;15886;49.170;14.572;2023-03-14T10:20:40;11.60;99.90
28715;DHT22;15886;49.170;14.572;2023-03-14T10:26:03;11.60;99.90
28715;DHT22;15886;49.170;14.572;2023-03-14T10:28:37;11.60;99.90
28715;DHT22;15886;49.170;14.572;2023-03-14T10:31:06;11.60;99.90
28715;DHT22;15886;49.170;14.572;2023-03-14T10:33:36;11.50;99.90
28715;DHT22;15886;49.170;14.572;2023-03-14T10:36:28;11.50;99.90
28715;DHT22;15886;49.170;14.572;2023-03-14T10:39:23;11.60;99.90
28715;DHT22;15886;49.170;14.572;2023-03-14T10:42:39;11.60;99.90
28715;DHT22;15886;49.170;14.572;2023-03-14T10:45:05;11.60;99.90
28715;DHT22;15886;49.170;14.572;2023-03-14T10:47:35;11.60;99.90
28715;DHT22;15886;49.170;14.572;2023-03-14T10:50:26;11.70;99.90
28715;DHT22;15886;49.170;14.572;2023-03-14T10:52:56;11.70;99.90
28715;DHT22;15886;49.170;14.572;2023-03-14T10:55:40;11.70;99.90
28715;DHT22;15886;49.170;14.572;2023-03-14T10:58:28;11.80;99.90
28715;DHT22;15886;49.170;14.572;2023-03-14T11:04:04;11.80;99.90
28715;DHT22;15886;49.170;14.572;2023-03-14T11:15:15;11.90;99.90
28715;DHT22;15886;49.170;14.572;2023-03-14T11:23:35;12.00;99.90
28715;DHT22;15886;49.170;14.572;2023-03-14T11:26:27;12.00;99.90
28715;DHT22;15886;49.170;14.572;2023-03-14T11:32:02;12.00;99.90
28715;DHT22;15886;49.170;14.572;2023-03-14T11:34:42;12.00;99.90
28715;DHT22;15886;49.170;14.572;2023-03-14T11:39:50;12.20;99.90
28715;DHT22;15886;49.170;14.572;2023-03-14T11:42:21;12.30;99.90
28715;DHT22;15886;49.170;14.572;2023-03-14T11:44:50;12.30;99.90
28715;DHT22;15886;49.170;14.572;2023-03-14T11:47:30;12.30;99.90
28715;DHT22;15886;49.170;14.572;2023-03-14T11:53:09;12.30;99.90
28715;DHT22;15886;49.170;14.572;2023-03-14T11:55:40;12.50;99.90
28715;DHT22;15886;49.170;14.572;2023-03-14T12:00:49;12.50;99.90
28715;DHT22;15886;49.170;14.572;2023-03-14T12:08:42;12.40;99.90
28715;DHT22;15886;49.170;14.572;2023-03-14T12:11:34;12.30;99.90
28715;DHT22;15886;49.170;14.572;2023-03-14T12:14:28;12.20;99.90
28715;DHT22;15886;49.170;14.572;2023-03-14T12:19:45;12.20;99.90
28715;DHT22;15886;49.170;14.572;2023-03-14T12:22:30;12.20;99.90
28715;DHT22;15886;49.170;14.572;2023-03-14T12:25:06;12.10;99.90
28715;DHT22;15886;49.170;14.572;2023-03-14T12:35:46;12.10;99.90
28715;DHT22;15886;49.170;14.572;2023-03-14T12:43:44;12.10;99.90
28715;DHT22;15886;49.170;14.572;2023-03-14T12:48:54;12.00;99.90
28715;DHT22;15886;49.170;14.572;2023-03-14T12:59:52;11.90;99.90
28715;DHT22;15886;49.170;14.572;2023-03-14T13:02:41;11.90;99.90
28715;DHT22;15886;49.170;14.572;2023-03-14T13:05:16;12.00;99.90
28715;DHT22;15886;49.170;14.572;2023-03-14T13:10:39;12.00;99.90
28715;DHT22;15886;49.170;14.572;2023-03-14T13:13:23;12.00;99.90
28715;DHT22;15886;49.170;14.572;2023-03-14T13:15:59;12.00;99.90
28715;DHT22;15886;49.170;14.572;2023-03-14T13:18:36;12.00;99.90
28715;DHT22;15886;49.170;14.572;2023-03-14T13:23:41;12.00;99.90
28715;DHT22;15886;49.170;14.572;2023-03-14T13:26:21;12.00;99.90
28715;DHT22;15886;49.170;14.572;2023-03-14T13:28:51;12.10;99.90
28715;DHT22;15886;49.170;14.572;2023-03-14T13:31:25;12.10;99.90
28715;DHT22;15886;49.170;14.572;2023-03-14T13:34:00;12.20;99.60
28715;DHT22;15886;49.170;14.572;2023-03-14T13:36:35;12.10;99.90
28715;DHT22;15886;49.170;14.572;2023-03-14T13:39:10;12.10;99.90
28715;DHT22;15886;49.170;14.572;2023-03-14T13:41:47;12.10;99.90
28715;DHT22;15886;49.170;14.572;2023-03-14T13:44:37;12.10;99.90
28715;DHT22;15886;49.170;14.572;2023-03-14T13:47:15;12.10;99.90
28715;DHT22;15886;49.170;14.572;2023-03-14T13:49:44;12.10;99.90
28715;DHT22;15886;49.170;14.572;2023-03-14T13:52:35;12.10;99.90
28715;DHT22;15886;49.170;14.572;2023-03-14T13:55:06;12.20;99.60
28715;DHT22;15886;49.170;14.572;2023-03-14T13:57:49;12.10;99.60
28715;DHT22;15886;49.170;14.572;2023-03-14T14:00:24;12.10;99.20
28715;DHT22;15886;49.170;14.572;2023-03-14T14:02:55;12.10;99.50
28715;DHT22;15886;49.170;14.572;2023-03-14T14:05:27;12.00;98.90
28715;DHT22;15886;49.170;14.572;2023-03-14T14:07:56;12.10;99.20
28715;DHT22;15886;49.170;14.572;2023-03-14T14:10:36;12.10;99.10
28715;DHT22;15886;49.170;14.572;2023-03-14T14:13:10;12.10;99.90
28715;DHT22;15886;49.170;14.572;2023-03-14T14:15:46;12.10;99.30
28715;DHT22;15886;49.170;14.572;2023-03-14T14:18:18;12.00;99.90
28715;DHT22;15886;49.170;14.572;2023-03-14T14:20:49;12.00;99.90
28715;DHT22;15886;49.170;14.572;2023-03-14T14:23:24;12.00;99.90
28715;DHT22;15886;49.170;14.572;2023-03-14T14:25:54;12.00;99.90
28715;DHT22;15886;49.170;14.572;2023-03-14T14:28:26;12.00;99.90
28715;DHT22;15886;49.170;14.572;2023-03-14T14:33:55;11.90;99.90
28715;DHT22;15886;49.170;14.572;2023-03-14T14:36:39;11.80;99.90
28715;DHT22;15886;49.170;14.572;2023-03-14T14:39:20;11.70;99.90
28715;DHT22;15886;49.170;14.572;2023-03-14T14:41:50;11.70;99.90
28715;DHT22;15886;49.170;14.572;2023-03-14T14:44:27;11.70;99.90
28715;DHT22;15886;49.170;14.572;2023-03-14T14:46:56;11.70;99.90
28715;DHT22;15886;49.170;14.572;2023-03-14T14:49:32;11.60;99.90
28715;DHT22;15886;49.170;14.572;2023-03-14T14:52:13;11.60;99.90
28715;DHT22;15886;49.170;14.572;2023-03-14T14:54:53;11.50;99.90
28715;DHT22;15886;49.170;14.572;2023-03-14T14:57:30;11.50;99.90
28715;DHT22;15886;49.170;14.572;2023-03-14T15:00:07;11.50;99.90
28715;DHT22;15886;49.170;14.572;2023-03-14T15:02:49;11.50;99.90
28715;DHT22;15886;49.170;14.572;2023-03-14T15:05:26;11.60;99.90
28715;DHT22;15886;49.170;14.572;2023-03-14T15:07:55;11.60;99.90
28715;DHT22;15886;49.170;14.572;2023-03-14T15:10:24;11.60;99.90
28715;DHT22;15886;49.170;14.572;2023-03-14T15:12:53;11.60;99.90
28715;DHT22;15886;49.170;14.572;2023-03-14T15:15:21;11.60;99.90
28715;DHT22;15886;49.170;14.572;2023-03-14T15:17:51;11.70;99.90
28715;DHT22;15886;49.170;14.572;2023-03-14T15:20:34;11.80;99.90
28715;DHT22;15886;49.170;14.572;2023-03-14T15:23:33;11.70;99.90
28715;DHT22;15886;49.170;14.572;2023-03-14T15:26:13;11.70;99.90
28715;DHT22;15886;49.170;14.572;2023-03-14T15:28:52;11.70;99.90
28715;DHT22;15886;49.170;14.572;2023-03-14T15:31:35;11.70;99.90
28715;DHT22;15886;49.170;14.572;2023-03-14T15:34:07;11.70;99.90
28715;DHT22;15886;49.170;14.572;2023-03-14T15:36:41;11.60;99.90
28715;DHT22;15886;49.170;14.572;2023-03-14T15:42:45;11.60;99.90
28715;DHT22;15886;49.170;14.572;2023-03-14T15:45:13;11.60;99.90
28715;DHT22;15886;49.170;14.572;2023-03-14T15:47:49;11.50;99.90
28715;DHT22;15886;49.170;14.572;2023-03-14T15:50:41;11.40;99.90
28715;DHT22;15886;49.170;14.572;2023-03-14T15:53:13;11.30;99.90
28715;DHT22;15886;49.170;14.572;2023-03-14T15:55:43;11.40;99.90
28715;DHT22;15886;49.170;14.572;2023-03-14T15:58:47;11.30;99.90
28715;DHT22;15886;49.170;14.572;2023-03-14T16:01:26;11.40;99.90
28715;DHT22;15886;49.170;14.572;2023-03-14T16:04:08;11.40;99.90
28715;DHT22;15886;49.170;14.572;2023-03-14T16:07:07;11.40;99.90
28715;DHT22;15886;49.170;14.572;2023-03-14T16:09:43;11.40;99.90
28715;DHT22;15886;49.170;14.572;2023-03-14T16:12:13;11.30;99.90
28715;DHT22;15886;49.170;14.572;2023-03-14T16:14:41;11.30;99.90
28715;DHT22;15886;49.170;14.572;2023-03-14T16:17:10;11.30;99.90
28715;DHT22;15886;49.170;14.572;2023-03-14T16:19:38;11.20;99.90
28715;DHT22;15886;49.170;14.572;2023-03-14T16:22:07;11.20;99.90
28715;DHT22;15886;49.170;14.572;2023-03-14T16:24:37;11.10;99.90
28715;DHT22;15886;49.170;14.572;2023-03-14T16:27:05;11.10;99.90
28715;DHT22;15886;49.170;14.572;2023-03-14T16:29:35;11.10;99.90
28715;DHT22;15886;49.170;14.572;2023-03-14T16:32:04;11.10;99.90
28715;DHT22;15886;49.170;14.572;2023-03-14T16:34:36;11.00;99.90
28715;DHT22;15886;49.170;14.572;2023-03-14T16:37:05;11.10;99.90
28715;DHT22;15886;49.170;14.572;2023-03-14T16:39:33;11.00;99.90
28715;DHT22;15886;49.170;14.572;2023-03-14T16:42:17;11.00;99.90
28715;DHT22;15886;49.170;14.572;2023-03-14T16:44:46;11.00;99.90
28715;DHT22;15886;49.170;14.572;2023-03-14T16:47:21;11.00;99.90
28715;DHT22;15886;49.170;14.572;2023-03-14T16:49:49;10.90;99.90
28715;DHT22;15886;49.170;14.572;2023-03-14T16:52:22;10.80;99.90
28715;DHT22;15886;49.170;14.572;2023-03-14T16:54:50;10.80;99.90
28715;DHT22;15886;49.170;14.572;2023-03-14T16:57:37;10.70;99.90
28715;DHT22;15886;49.170;14.572;2023-03-14T17:00:06;10.70;99.90
28715;DHT22;15886;49.170;14.572;2023-03-14T17:02:47;10.60;99.90
28715;DHT22;15886;49.170;14.572;2023-03-14T17:05:24;10.50;99.90
28715;DHT22;15886;49.170;14.572;2023-03-14T17:08:06;10.50;99.90
28715;DHT22;15886;49.170;14.572;2023-03-14T17:10:45;10.50;99.90
28715;DHT22;15886;49.170;14.572;2023-03-14T17:17:39;10.30;99.90
28715;DHT22;15886;49.170;14.572;2023-03-14T17:20:35;10.30;99.90
28715;DHT22;15886;49.170;14.572;2023-03-14T17:24:04;10.20;99.90
28715;DHT22;15886;49.170;14.572;2023-03-14T17:27:09;10.10;99.90
28715;DHT22;15886;49.170;14.572;2023-03-14T17:30:13;10.10;99.90
28715;DHT22;15886;49.170;14.572;2023-03-14T17:33:33;10.00;99.90
28715;DHT22;15886;49.170;14.572;2023-03-14T17:36:18;10.00;99.90
28715;DHT22;15886;49.170;14.572;2023-03-14T17:43:35;9.90;99.90
28715;DHT22;15886;49.170;14.572;2023-03-14T17:59:14;9.90;99.90
28715;DHT22;15886;49.170;14.572;2023-03-14T21:12:39;7.90;99.90
28715;DHT22;15886;49.170;14.572;2023-03-14T21:15:08;7.90;99.90
28715;DHT22;15886;49.170;14.572;2023-03-14T21:17:37;7.90;99.90
28715;DHT22;15886;49.170;14.572;2023-03-14T21:20:19;8.00;99.90
28715;DHT22;15886;49.170;14.572;2023-03-14T21:23:28;8.00;99.90
28715;DHT22;15886;49.170;14.572;2023-03-14T21:26:55;7.90;99.90
28715;DHT22;15886;49.170;14.572;2023-03-14T21:29:36;7.50;99.90
28715;DHT22;15886;49.170;14.572;2023-03-14T21:32:11;7.20;99.90
28715;DHT22;15886;49.170;14.572;2023-03-14T21:34:40;6.90;99.90
28715;DHT22;15886;49.170;14.572;2023-03-14T21:37:41;6.90;99.90
28715;DHT22;15886;49.170;14.572;2023-03-14T21:40:36;6.80;99.90
28715;DHT22;15886;49.170;14.572;2023-03-14T21:43:04;6.70;99.90
28715;DHT22;15886;49.170;14.572;2023-03-14T21:45:32;6.70;99.90
28715;DHT22;15886;49.170;14.572;2023-03-14T21:48:08;6.70;99.90
28715;DHT22;15886;49.170;14.572;2023-03-14T21:51:01;6.70;99.90
28715;DHT22;15886;49.170;14.572;2023-03-14T21:53:51;6.70;99.90
28715;DHT22;15886;49.170;14.572;2023-03-14T21:57:04;6.70;99.90
28715;DHT22;15886;49.170;14.572;2023-03-14T21:59:36;6.70;99.90
28715;DHT22;15886;49.170;14.572;2023-03-14T22:02:14;6.70;99.90
28715;DHT22;15886;49.170;14.572;2023-03-14T22:04:43;6.70;99.90
28715;DHT22;15886;49.170;14.572;2023-03-14T22:07:13;6.70;99.90
28715;DHT22;15886;49.170;14.572;2023-03-14T22:09:58;6.60;99.90
28715;DHT22;15886;49.170;14.572;2023-03-14T22:12:48;6.70;99.90
28715;DHT22;15886;49.170;14.572;2023-03-14T22:15:23;6.60;99.90
28715;DHT22;15886;49.170;14.572;2023-03-14T22:18:25;6.40;99.90
28715;DHT22;15886;49.170;14.572;2023-03-14T22:21:01;6.10;99.90
28715;DHT22;15886;49.170;14.572;2023-03-14T22:23:42;5.90;99.90
28715;DHT22;15886;49.170;14.572;2023-03-14T22:26:21;5.70;99.90
28715;DHT22;15886;49.170;14.572;2023-03-14T22:28:52;5.60;99.90
28715;DHT22;15886;49.170;14.572;2023-03-14T22:31:23;5.40;99.90
28715;DHT22;15886;49.170;14.572;2023-03-14T22:33:51;5.30;99.90
28715;DHT22;15886;49.170;14.572;2023-03-14T22:36:19;5.20;99.90
28715;DHT22;15886;49.170;14.572;2023-03-14T22:38:49;5.20;99.90
28715;DHT22;15886;49.170;14.572;2023-03-14T22:41:18;5.20;99.90
28715;DHT22;15886;49.170;14.572;2023-03-14T22:43:46;5.10;99.90
28715;DHT22;15886;49.170;14.572;2023-03-14T22:46:15;5.00;99.90
28715;DHT22;15886;49.170;14.572;2023-03-14T22:48:43;5.00;99.90